Time;durP1;ratioP1;P1;durP2;ratioP2;P2;SDS_P1;SDS_P2;PMS_P1;PMS_P2;Temp;Humidity;BMP_temperature;BMP_pressure;BME280_temperature;BME280_humidity;BME280_pressure;Samples;Min_cycle;Max_cycle;Signal;HPM_P1;HPM_P2
2022/12/12 00:01:31;;;;;;;17.52;12.98;;;;;;;2.24;94.53;100952.41;4978986;28;20046;-45
2022/12/12 00:03:59;;;;;;;17.88;12.63;;;;;;;2.24;94.44;100955.09;4978842;28;20078;-45
2022/12/12 00:06:27;;;;;;;18.58;13.15;;;;;;;2.25;94.27;100959.44;4959844;28;20039;-47
2022/12/12 00:08:55;;;;;;;18.85;13.70;;;;;;;2.25;94.64;100957.56;4980788;28;20501;-46
2022/12/12 00:11:23;;;;;;;17.48;13.65;;;;;;;2.24;94.32;100957.81;4983345;28;20035;-46
2022/12/12 00:13:51;;;;;;;17.38;13.10;;;;;;;2.22;94.65;100960.69;4973666;28;20113;-46
2022/12/12 00:16:20;;;;;;;18.35;13.85;;;;;;;2.21;94.31;100958.19;4973506;28;20404;-46
2022/12/12 00:18:48;;;;;;;19.65;14.38;;;;;;;2.19;94.38;100961.13;4973565;28;20118;-48
2022/12/12 00:21:27;;;;;;;18.33;13.60;;;;;;;2.19;94.55;100965.63;4973827;28;20050;-46
2022/12/12 00:23:55;;;;;;;19.52;14.07;;;;;;;2.16;94.78;100963.38;4980083;28;20050;-47
2022/12/12 00:26:25;;;;;;;19.08;13.48;;;;;;;2.12;94.09;100960.28;4969231;28;20445;-47
2022/12/12 00:28:54;;;;;;;17.88;13.27;;;;;;;2.03;94.41;100962.34;4979212;28;20042;-46
2022/12/12 00:31:22;;;;;;;19.55;14.00;;;;;;;1.97;94.30;100959.66;4984942;28;20039;-47
2022/12/12 00:33:50;;;;;;;17.60;13.45;;;;;;;1.92;94.82;100960.28;4975383;28;20417;-45
2022/12/12 00:36:21;;;;;;;18.42;13.65;;;;;;;1.87;94.87;100957.41;4976979;28;20058;-48
2022/12/12 00:38:49;;;;;;;18.20;13.38;;;;;;;1.86;95.51;100955.75;4990788;28;20046;-46
2022/12/12 00:41:17;;;;;;;18.63;13.45;;;;;;;1.86;95.30;100961.13;4965707;28;20050;-47
2022/12/12 00:43:44;;;;;;;18.30;13.32;;;;;;;1.85;95.64;100959.47;4975630;28;20038;-48
2022/12/12 00:46:17;;;;;;;19.08;13.75;;;;;;;1.85;95.58;100964.84;4971055;28;20054;-48
2022/12/12 00:48:45;;;;;;;18.08;13.23;;;;;;;1.81;95.33;100960.94;4977771;28;20493;-44
2022/12/12 00:51:17;;;;;;;18.10;13.50;;;;;;;1.79;95.47;100957.63;4976778;28;20042;-47
2022/12/12 00:53:46;;;;;;;18.08;12.85;;;;;;;1.78;95.63;100958.63;4969956;28;20497;-45
2022/12/12 00:56:15;;;;;;;19.15;13.85;;;;;;;1.77;95.97;100963.19;4962825;28;20066;-47
2022/12/12 00:58:43;;;;;;;18.42;13.63;;;;;;;1.75;95.51;100965.25;4961232;28;20097;-47
2022/12/12 01:01:13;;;;;;;17.60;13.57;;;;;;;1.67;95.46;100966.28;4977279;28;20051;-46
2022/12/12 01:03:42;;;;;;;19.63;14.07;;;;;;;1.58;95.71;100962.13;4976718;28;20043;-46
2022/12/12 01:06:10;;;;;;;19.08;13.63;;;;;;;1.53;96.13;100953.88;4999712;28;20034;-46
2022/12/12 01:08:38;;;;;;;18.10;13.27;;;;;;;1.49;96.29;100966.91;5002261;28;20051;-45
2022/12/12 01:11:08;;;;;;;18.60;13.30;;;;;;;1.51;96.63;100965.84;4961829;28;20109;-47
2022/12/12 01:13:36;;;;;;;17.77;13.60;;;;;;;1.54;97.18;100966.28;4959535;28;20096;-47
2022/12/12 01:16:05;;;;;;;18.17;13.02;;;;;;;1.55;96.51;100967.94;4976409;28;20057;-48
2022/12/12 01:18:33;;;;;;;17.58;12.75;;;;;;;1.53;96.21;100972.69;4975998;28;20426;-46
2022/12/12 01:21:01;;;;;;;18.73;13.70;;;;;;;1.52;96.28;100975.59;5013254;28;20046;-46
2022/12/12 01:23:28;;;;;;;18.95;13.63;;;;;;;1.48;95.83;100985.88;4985391;28;20069;-45
2022/12/12 01:26:01;;;;;;;23.02;14.55;;;;;;;1.44;96.23;100990.00;4987603;28;20049;-43
2022/12/12 01:28:29;;;;;;;19.67;14.50;;;;;;;1.38;95.87;100996.19;4994003;28;20125;-45
2022/12/12 01:30:56;;;;;;;18.83;13.57;;;;;;;1.32;96.49;100997.00;5014848;28;20042;-45
2022/12/12 01:33:24;;;;;;;19.35;13.77;;;;;;;1.33;96.80;101002.19;5014325;28;20069;-46
2022/12/12 01:35:52;;;;;;;20.40;14.45;;;;;;;1.36;96.94;101000.94;5007921;28;20408;-47
2022/12/12 01:38:20;;;;;;;17.88;13.02;;;;;;;1.38;96.50;101006.94;4987276;28;20039;-47
2022/12/12 01:40:47;;;;;;;22.17;13.55;;;;;;;1.37;96.59;101006.13;4977991;28;20562;-45
2022/12/12 01:43:16;;;;;;;19.00;13.70;;;;;;;1.42;97.32;101008.16;5006351;28;20408;-46
2022/12/12 01:46:01;;;;;;;17.58;13.20;;;;;;;1.46;96.94;101012.09;4997303;28;20042;-47
2022/12/12 01:48:37;;;;;;;19.25;14.02;;;;;;;1.49;97.02;101009.88;5002032;28;20058;-44
2022/12/12 01:51:10;;;;;;;19.88;14.15;;;;;;;1.55;97.12;101024.31;4978738;28;20420;-47
2022/12/12 01:53:37;;;;;;;19.20;14.13;;;;;;;1.60;97.09;101018.34;4974270;28;20447;-46
2022/12/12 01:56:11;;;;;;;18.45;13.88;;;;;;;1.61;96.56;101022.66;4997260;28;20492;-46
2022/12/12 01:58:45;;;;;;;19.25;13.23;;;;;;;1.62;96.26;101021.66;4997756;28;20144;-45
2022/12/12 02:01:14;;;;;;;18.17;13.25;;;;;;;1.62;96.24;101018.97;4965303;28;20046;-48
2022/12/12 02:03:42;;;;;;;18.15;13.48;;;;;;;1.59;95.86;101027.41;4986388;28;20097;-46
2022/12/12 02:06:13;;;;;;;20.33;13.15;;;;;;;1.56;95.64;101022.47;4989090;28;20492;-46
2022/12/12 02:08:42;;;;;;;17.45;13.25;;;;;;;1.51;96.03;101020.38;4996684;28;20104;-47
2022/12/12 02:11:09;;;;;;;18.98;14.07;;;;;;;1.49;95.98;101025.13;4997178;28;20045;-44
2022/12/12 02:13:37;;;;;;;19.88;13.85;;;;;;;1.48;96.16;101023.47;5002093;28;20104;-46
2022/12/12 02:16:36;;;;;;;21.05;14.68;;;;;;;1.45;96.37;101024.72;5007601;28;20081;-46
2022/12/12 02:19:35;;;;;;;19.83;14.13;;;;;;;1.47;96.76;101022.66;4976691;28;20535;-48
2022/12/12 02:22:08;;;;;;;18.10;13.48;;;;;;;1.50;96.57;101024.09;4990907;28;20065;-46
2022/12/12 02:24:50;;;;;;;19.38;14.20;;;;;;;1.50;96.53;101021.41;5013933;28;20100;-44
2022/12/12 02:27:26;;;;;;;19.58;14.38;;;;;;;1.49;96.39;101022.44;5001439;28;20378;-47
2022/12/12 02:30:08;;;;;;;;;;;;;;;1.46;96.25;101028.22;5014482;28;20497;-46
2022/12/12 02:32:40;;;;;;;18.60;14.15;;;;;;;1.45;96.56;101032.78;4986243;28;19929;-47
2022/12/12 02:35:31;;;;;;;20.20;14.95;;;;;;;1.46;96.91;101036.28;4994346;28;20049;-45
2022/12/12 02:38:25;;;;;;;20.98;14.70;;;;;;;1.45;97.04;101026.56;5011209;28;20073;-47
2022/12/12 02:40:53;;;;;;;19.48;14.32;;;;;;;1.45;96.75;101030.09;5003393;28;20053;-47
2022/12/12 02:43:46;;;;;;;20.10;13.95;;;;;;;1.42;96.37;101026.97;5013589;28;20049;-43
2022/12/12 02:46:38;;;;;;;20.08;14.15;;;;;;;1.40;96.98;101029.03;5012594;28;20042;-44
2022/12/12 02:49:12;;;;;;;22.23;15.15;;;;;;;1.39;96.79;101024.69;4969375;28;20046;-45
2022/12/12 02:51:41;;;;;;;21.42;14.13;;;;;;;1.38;96.98;101026.56;5000849;28;20047;-46
2022/12/12 02:54:14;;;;;;;19.75;14.02;;;;;;;1.37;96.83;101026.75;5013350;28;20089;-46
2022/12/12 02:56:49;;;;;;;20.38;15.00;;;;;;;1.37;96.97;101026.75;4996044;28;20120;-45
2022/12/12 02:59:36;;;;;;;20.92;14.90;;;;;;;1.38;97.04;101023.88;4997962;28;20108;-45
2022/12/12 03:02:27;;;;;;;21.90;15.10;;;;;;;1.38;96.87;101020.38;4962267;28;20054;-46
2022/12/12 03:08:26;;;;;;;22.45;15.18;;;;;;;1.39;96.95;101013.94;4987830;28;20049;-46
2022/12/12 03:10:54;;;;;;;19.20;14.02;;;;;;;1.39;96.64;101019.31;4983694;28;20543;-46
2022/12/12 03:13:50;;;;;;;22.70;14.40;;;;;;;1.37;96.28;101022.22;5013143;28;20053;-46
2022/12/12 03:16:26;;;;;;;21.45;14.48;;;;;;;1.35;95.88;101024.28;4999042;28;20045;-45
2022/12/12 03:19:18;;;;;;;20.93;14.43;;;;;;;1.28;96.40;101018.88;4998908;28;20477;-46
2022/12/12 03:21:53;;;;;;;18.33;13.07;;;;;;;1.28;96.24;101018.88;4964910;28;20066;-46
2022/12/12 03:24:23;;;;;;;21.77;15.27;;;;;;;1.27;96.23;101025.28;4990298;28;20041;-48
2022/12/12 03:27:15;;;;;;;19.20;13.57;;;;;;;1.30;96.20;101018.69;5013489;28;20053;-50
2022/12/12 03:30:11;;;;;;;21.88;15.07;;;;;;;1.30;96.11;101025.91;4966279;28;20511;-45
2022/12/12 03:32:42;;;;;;;20.83;14.68;;;;;;;1.31;95.68;101030.25;4983194;28;20053;-48
2022/12/12 03:35:41;;;;;;;22.33;16.10;;;;;;;1.28;95.25;101026.94;4992503;28;20113;-43
2022/12/12 03:38:33;;;;;;;22.65;15.57;;;;;;;1.26;94.42;101030.84;4970842;28;20500;-47
2022/12/12 03:41:07;;;;;;;22.83;16.05;;;;;;;1.15;94.66;101028.75;5006905;28;20039;-42
2022/12/12 03:44:00;;;;;;;21.35;15.68;;;;;;;1.11;95.35;101031.00;5011574;28;20041;-45
2022/12/12 03:46:35;;;;;;;21.52;15.68;;;;;;;1.13;95.13;101037.00;4995325;28;20561;-47
2022/12/12 03:49:16;;;;;;;23.17;16.27;;;;;;;1.09;95.06;101038.44;4982459;28;20437;-45
2022/12/12 03:51:52;;;;;;;21.67;14.90;;;;;;;1.05;94.87;101037.16;4978129;28;20293;-43
2022/12/12 03:54:41;;;;;;;20.65;14.55;;;;;;;1.01;94.93;101033.22;4992677;28;20049;-42
2022/12/12 03:57:27;;;;;;;25.30;16.73;;;;;;;0.95;94.47;101044.75;4994659;28;20046;-45
2022/12/12 04:00:06;;;;;;;22.05;15.23;;;;;;;0.90;94.17;101047.22;5016812;28;20046;-45
2022/12/12 04:02:45;;;;;;;23.48;16.17;;;;;;;0.82;94.72;101041.00;5004698;28;20149;-44
2022/12/12 04:05:34;;;;;;;21.85;15.18;;;;;;;0.85;95.25;101039.75;5016768;28;20053;-46
2022/12/12 04:08:12;;;;;;;22.95;15.68;;;;;;;0.87;95.06;101045.75;5006180;28;20046;-45
2022/12/12 04:14:08;;;;;;;21.77;15.13;;;;;;;0.90;94.81;101045.34;5007315;28;20054;-47
2022/12/12 04:16:40;;;;;;;21.03;14.80;;;;;;;0.88;94.25;101049.25;4992122;28;20045;-44
2022/12/12 04:23:13;;;;;;;23.63;15.88;;;;;;;0.85;94.36;101045.94;4984203;28;20663;-47
2022/12/12 04:25:09;;;;;;;21.58;15.25;;;;;;;0.80;93.43;101051.09;4976387;28;20041;-46
2022/12/12 04:27:43;;;;;;;19.98;14.10;;;;;;;0.76;93.20;101044.44;4978750;28;20042;-45
2022/12/12 04:30:12;;;;;;;21.45;15.20;;;;;;;0.73;93.29;101042.16;4998948;28;20046;-44
2022/12/12 04:32:42;;;;;;;24.60;16.13;;;;;;;0.73;93.91;101041.34;4984377;28;20042;-47
2022/12/12 04:35:19;;;;;;;22.63;15.63;;;;;;;0.74;94.27;101046.50;4989570;28;20046;-46
2022/12/12 04:37:55;;;;;;;21.05;15.05;;;;;;;0.77;93.98;101047.94;5006036;28;20050;-45
2022/12/12 04:40:28;;;;;;;23.58;15.40;;;;;;;0.77;94.07;101054.16;5003561;28;20120;-44
2022/12/12 04:43:27;;;;;;;24.17;16.17;;;;;;;0.83;94.40;101058.72;5004640;28;20526;-46
2022/12/12 04:46:01;;;;;;;23.30;16.25;;;;;;;0.82;93.61;101062.44;4974677;28;20096;-47
2022/12/12 04:48:35;;;;;;;22.63;15.75;;;;;;;0.77;93.27;101059.53;4998744;28;20125;-47
2022/12/12 04:51:06;;;;;;;23.70;16.15;;;;;;;0.71;93.35;101057.63;5011808;28;20062;-47
2022/12/12 04:53:37;;;;;;;22.10;15.52;;;;;;;0.68;93.95;101060.72;4979959;28;20042;-45
2022/12/12 04:56:07;;;;;;;21.63;15.40;;;;;;;0.70;94.02;101052.44;5015694;28;20050;-45
2022/12/12 04:58:36;;;;;;;23.95;16.13;;;;;;;0.71;94.04;101054.94;5015743;28;20042;-47
2022/12/12 05:01:14;;;;;;;24.58;16.70;;;;;;;0.72;94.03;101053.09;4981314;28;20061;-49
2022/12/12 05:04:02;;;;;;;23.88;16.67;;;;;;;0.64;93.86;101059.44;4975542;28;20042;-48
2022/12/12 05:06:39;;;;;;;24.50;17.05;;;;;;;0.54;93.51;101056.28;5005706;28;20096;-47
2022/12/12 05:09:07;;;;;;;25.33;17.58;;;;;;;0.44;93.52;101063.84;4996660;28;20034;-49
2022/12/12 05:11:35;;;;;;;24.55;17.25;;;;;;;0.26;94.03;101059.78;4986179;28;20050;-47
2022/12/12 05:14:04;;;;;;;25.23;17.65;;;;;;;0.16;94.84;101064.66;5005915;28;20877;-49
2022/12/12 05:16:39;;;;;;;24.73;17.45;;;;;;;0.14;94.55;101064.00;4997039;28;20046;-45
2022/12/12 05:19:07;;;;;;;25.55;16.80;;;;;;;0.16;95.28;101065.47;4996936;28;20057;-47
2022/12/12 05:21:35;;;;;;;26.35;17.20;;;;;;;0.17;94.77;101069.00;5000057;28;20035;-47
2022/12/12 05:24:02;;;;;;;23.67;16.27;;;;;;;0.16;94.32;101067.34;4989736;28;20435;-47
2022/12/12 05:26:32;;;;;;;25.40;16.45;;;;;;;0.20;95.46;101071.28;4995687;28;20042;-47
2022/12/12 05:29:01;;;;;;;23.92;15.70;;;;;;;0.18;93.65;101073.34;4988992;28;20458;-44
2022/12/12 05:31:34;;;;;;;23.92;17.00;;;;;;;0.11;93.40;101064.41;5006250;28;20496;-45
2022/12/12 05:34:03;;;;;;;23.58;16.63;;;;;;;0.07;93.84;101079.19;4996127;28;20054;-46
2022/12/12 05:36:31;;;;;;;25.30;16.98;;;;;;;0.07;93.98;101069.31;5010458;28;20038;-47
2022/12/12 05:38:58;;;;;;;25.25;16.70;;;;;;;0.05;94.47;101066.03;4997952;28;20057;-47
2022/12/12 05:41:26;;;;;;;27.50;17.73;;;;;;;0.07;94.41;101068.47;4990771;28;20077;-45
2022/12/12 05:43:54;;;;;;;24.60;17.02;;;;;;;0.13;94.60;101073.91;4997622;28;20046;-46
2022/12/12 05:46:21;;;;;;;25.98;17.05;;;;;;;0.20;94.07;101073.97;5013425;28;20037;-46
2022/12/12 05:48:49;;;;;;;26.17;16.65;;;;;;;0.26;94.06;101081.22;4983236;28;20050;-47
2022/12/12 05:51:17;;;;;;;23.58;16.67;;;;;;;0.28;93.56;101078.34;5002019;28;20460;-45
2022/12/12 05:53:46;;;;;;;25.25;16.25;;;;;;;0.24;93.45;101079.75;5013561;28;20038;-45
2022/12/12 05:56:13;;;;;;;22.77;15.45;;;;;;;0.27;93.54;101080.22;5014238;28;20050;-45
2022/12/12 05:58:41;;;;;;;24.25;16.60;;;;;;;0.30;93.81;101074.47;5002042;28;20047;-45
2022/12/12 06:01:09;;;;;;;24.27;16.23;;;;;;;0.28;92.95;101076.50;5003430;28;20061;-48
2022/12/12 06:03:37;;;;;;;22.38;15.02;;;;;;;0.31;93.59;101073.41;5004752;28;20050;-44
2022/12/12 06:06:05;;;;;;;20.85;15.05;;;;;;;0.38;93.24;101076.97;5014337;28;20112;-44
2022/12/12 06:08:32;;;;;;;25.23;16.35;;;;;;;0.41;92.78;101081.16;5008635;28;20050;-44
2022/12/12 06:11:03;;;;;;;22.55;15.85;;;;;;;0.41;92.56;101075.78;5002303;28;20069;-44
2022/12/12 06:13:30;;;;;;;22.98;15.65;;;;;;;0.40;91.49;101076.78;5013931;28;20042;-45
2022/12/12 06:15:58;;;;;;;23.02;16.35;;;;;;;0.40;91.97;101076.78;4994546;28;20053;-44
2022/12/12 06:18:26;;;;;;;25.30;16.95;;;;;;;0.38;91.54;101076.97;5001031;28;20038;-46
2022/12/12 06:21:05;;;;;;;25.13;16.92;;;;;;;0.38;91.56;101082.34;5001406;28;20441;-46
2022/12/12 06:23:36;;;;;;;25.08;17.17;;;;;;;0.39;91.60;101081.34;5010502;28;20042;-49
2022/12/12 06:26:04;;;;;;;29.00;17.88;;;;;;;0.35;91.21;101088.09;5003870;28;20050;-46
2022/12/12 06:28:31;;;;;;;28.70;17.17;;;;;;;0.29;90.41;101083.53;5013974;28;20077;-47
2022/12/12 06:30:59;;;;;;;26.48;17.50;;;;;;;0.25;91.35;101097.50;4962951;28;20046;-50
2022/12/12 06:33:28;;;;;;;24.30;16.73;;;;;;;0.26;91.31;101099.16;4297967;28;10000153;-48
2022/12/12 06:36:03;;;;;;;25.95;17.20;;;;;;;0.21;90.88;101097.06;4974531;28;20058;-48
2022/12/12 06:38:31;;;;;;;24.42;16.65;;;;;;;0.16;90.56;101099.47;5010604;28;20037;-48
2022/12/12 06:41:03;;;;;;;24.50;16.63;;;;;;;0.18;91.16;101100.13;4996012;28;20050;-48
2022/12/12 06:43:31;;;;;;;23.83;16.60;;;;;;;0.20;90.83;101098.91;5005978;28;20038;-48
2022/12/12 06:46:03;;;;;;;21.83;14.20;;;;;;;0.21;91.06;101102.41;5006832;28;20053;-47
2022/12/12 06:48:32;;;;;;;23.95;16.60;;;;;;;0.17;90.72;101111.88;4984232;28;20140;-47
2022/12/12 06:51:04;;;;;;;28.05;18.05;;;;;;;0.08;90.62;101113.84;4982211;28;20075;-44
2022/12/12 06:53:31;;;;;;;28.42;18.27;;;;;;;-0.02;90.92;101118.69;5010737;28;20508;-47
2022/12/12 06:55:59;;;;;;;25.20;18.05;;;;;;;-0.03;91.85;101119.69;5008375;28;20041;-50
2022/12/12 06:58:26;;;;;;;27.92;18.95;;;;;;;-0.07;92.21;101124.63;4999763;28;20088;-50
2022/12/12 07:00:54;;;;;;;30.45;18.90;;;;;;;-0.11;92.40;101119.84;4990666;28;20046;-47
2022/12/12 07:03:22;;;;;;;27.10;17.23;;;;;;;-0.07;92.59;101127.31;4992019;28;20054;-51
2022/12/12 07:05:49;;;;;;;27.02;17.67;;;;;;;-0.01;91.59;101129.19;5004077;28;20049;-48
2022/12/12 07:08:17;;;;;;;27.70;17.85;;;;;;;0.06;91.91;101126.59;5010395;28;20037;-48
2022/12/12 07:10:45;;;;;;;25.70;17.75;;;;;;;0.12;91.66;101130.34;4996157;28;20050;-48
2022/12/12 07:13:12;;;;;;;23.52;15.82;;;;;;;0.16;90.43;101128.94;4991314;28;20059;-47
2022/12/12 07:15:45;;;;;;;26.33;17.08;;;;;;;0.15;90.07;101128.13;4995507;28;20058;-45
2022/12/12 07:18:13;;;;;;;27.30;17.20;;;;;;;0.14;90.19;101129.13;4984560;28;20129;-48
2022/12/12 07:20:41;;;;;;;24.10;15.70;;;;;;;0.19;90.39;101125.88;5002600;28;20054;-46
2022/12/12 07:23:09;;;;;;;26.15;16.48;;;;;;;0.21;90.23;101126.53;4969266;28;20096;-49
2022/12/12 07:25:41;;;;;;;24.90;15.55;;;;;;;0.19;89.64;101128.56;4992269;28;20525;-49
2022/12/12 07:28:10;;;;;;;23.83;15.82;;;;;;;0.14;89.19;101128.31;5008629;28;20143;-49
2022/12/12 07:30:40;;;;;;;28.98;17.10;;;;;;;0.11;88.99;101134.88;4991433;28;20125;-46
2022/12/12 07:33:08;;;;;;;25.48;16.83;;;;;;;0.08;89.31;101139.81;4971721;28;20440;-47
2022/12/12 07:35:35;;;;;;;27.60;18.25;;;;;;;0.09;89.75;101139.59;4998753;28;20046;-50
2022/12/12 07:38:03;;;;;;;33.03;16.67;;;;;;;0.12;89.52;101147.28;5009563;28;20050;-50
2022/12/12 07:40:32;;;;;;;24.33;15.35;;;;;;;0.16;89.86;101148.53;5009620;28;20046;-46
2022/12/12 07:43:03;;;;;;;28.42;16.40;;;;;;;0.13;88.53;101148.94;5000856;28;20062;-49
2022/12/12 07:45:30;;;;;;;27.58;17.27;;;;;;;0.09;88.02;101147.63;5009452;28;20054;-50
2022/12/12 07:47:58;;;;;;;29.52;19.60;;;;;;;0.07;88.49;101148.84;4991641;28;20417;-45
2022/12/12 07:50:26;;;;;;;30.80;18.83;;;;;;;0.07;88.31;101155.03;5006108;28;20073;-47
2022/12/12 07:52:53;;;;;;;28.23;16.52;;;;;;;0.09;88.39;101157.53;4971672;28;20132;-47
2022/12/12 07:55:21;;;;;;;29.20;17.55;;;;;;;0.04;88.50;101160.78;5001321;28;20501;-49
2022/12/12 07:57:48;;;;;;;28.73;18.15;;;;;;;-0.01;88.52;101158.66;5000232;28;20057;-49
2022/12/12 08:00:17;;;;;;;29.08;17.83;;;;;;;-0.02;88.81;101153.53;5009372;28;20042;-47
2022/12/12 08:02:44;;;;;;;29.58;19.10;;;;;;;-0.01;88.64;101156.00;4992005;28;20065;-48
2022/12/12 08:05:12;;;;;;;28.67;17.65;;;;;;;0.04;89.35;101165.31;5006367;28;20468;-45
2022/12/12 08:07:40;;;;;;;30.75;19.67;;;;;;;-0.09;88.10;101166.84;5002920;28;20043;-50
2022/12/12 08:10:08;;;;;;;31.08;18.17;;;;;;;-0.10;89.56;101169.69;5006303;28;20045;-48
2022/12/12 08:12:36;;;;;;;31.77;19.02;;;;;;;-0.16;88.55;101176.66;5009650;28;20046;-47
2022/12/12 08:15:04;;;;;;;30.38;20.02;;;;;;;-0.24;89.09;101174.06;4994227;28;20039;-47
2022/12/12 08:17:31;;;;;;;29.67;18.77;;;;;;;-0.29;88.83;101181.81;5006346;28;20508;-48
2022/12/12 08:19:59;;;;;;;31.67;18.42;;;;;;;-0.24;89.80;101174.91;5012436;28;20038;-48
2022/12/12 08:22:26;;;;;;;30.85;18.73;;;;;;;-0.16;89.73;101176.66;5000217;28;20047;-45
2022/12/12 08:24:54;;;;;;;27.90;17.38;;;;;;;-0.11;89.40;101176.06;5012048;28;20084;-47
2022/12/12 08:27:22;;;;;;;29.90;18.25;;;;;;;-0.07;88.69;101183.56;5012470;28;20046;-48
2022/12/12 08:29:51;;;;;;;27.98;17.88;;;;;;;-0.05;88.42;101184.19;5012685;28;20045;-48
2022/12/12 08:32:19;;;;;;;28.95;18.85;;;;;;;-0.02;88.20;101189.16;5009536;28;20344;-49
2022/12/12 08:34:47;;;;;;;26.23;16.25;;;;;;;0.03;87.89;101183.25;5009468;28;20052;-46
2022/12/12 08:37:14;;;;;;;27.88;18.27;;;;;;;0.03;88.33;101182.41;5012099;28;20042;-47
2022/12/12 08:39:42;;;;;;;28.48;17.67;;;;;;;0.06;88.47;101184.72;5012232;28;20493;-48
2022/12/12 08:42:11;;;;;;;26.90;15.98;;;;;;;0.06;87.24;101193.56;4983356;28;20042;-48
2022/12/12 08:44:38;;;;;;;26.30;15.45;;;;;;;0.04;87.43;101195.59;5003491;28;20038;-49
2022/12/12 08:47:06;;;;;;;26.85;17.85;;;;;;;0.07;87.85;101197.06;5015841;28;20145;-50
2022/12/12 08:49:34;;;;;;;29.67;16.50;;;;;;;0.09;88.37;101200.41;4993552;28;20114;-47
2022/12/12 08:52:04;;;;;;;29.42;18.85;;;;;;;0.05;88.55;101193.75;4996067;28;20400;-50
2022/12/12 08:54:32;;;;;;;30.80;20.10;;;;;;;-0.12;88.48;101194.00;4978171;28;20058;-48
2022/12/12 08:57:00;;;;;;;35.33;19.98;;;;;;;-0.19;89.45;101201.13;4996192;28;20588;-47
2022/12/12 08:59:27;;;;;;;37.00;19.75;;;;;;;-0.20;89.78;101199.44;4987267;28;20049;-46
2022/12/12 09:01:55;;;;;;;33.22;20.35;;;;;;;-0.19;89.52;101198.44;5007779;28;20054;-47
2022/12/12 09:04:23;;;;;;;28.17;19.02;;;;;;;-0.18;89.63;101199.28;5015419;28;20081;-50
2022/12/12 09:06:50;;;;;;;31.95;20.67;;;;;;;-0.18;88.81;101204.63;5004203;28;20089;-48
2022/12/12 09:09:18;;;;;;;32.70;20.50;;;;;;;-0.18;89.10;101205.44;5015730;28;20046;-48
2022/12/12 09:11:46;;;;;;;27.25;15.75;;;;;;;-0.10;88.76;101202.66;4995263;28;20038;-48
2022/12/12 09:14:13;;;;;;;28.55;16.33;;;;;;;-0.04;89.37;101201.09;5014604;28;20050;-48
2022/12/12 09:16:41;;;;;;;28.30;17.13;;;;;;;-0.03;89.16;101198.19;5014969;28;20038;-48
2022/12/12 09:19:08;;;;;;;26.92;17.65;;;;;;;-0.01;89.70;101201.53;5010095;28;20050;-49
2022/12/12 09:21:36;;;;;;;29.50;17.65;;;;;;;-0.01;89.64;101196.16;5009328;28;20038;-47
2022/12/12 09:24:04;;;;;;;23.30;15.45;;;;;;;0.02;89.03;101200.31;5008177;28;20132;-50
2022/12/12 09:26:31;;;;;;;27.48;18.17;;;;;;;0.03;88.97;101198.50;5014696;28;20511;-49
2022/12/12 09:28:59;;;;;;;26.48;15.75;;;;;;;0.03;88.89;101191.28;5014822;28;20042;-49
2022/12/12 09:31:27;;;;;;;26.23;16.52;;;;;;;0.04;88.95;101200.13;5013135;28;20088;-50
2022/12/12 09:33:54;;;;;;;21.85;14.70;;;;;;;0.08;89.67;101201.44;5004580;28;20049;-48
2022/12/12 09:36:22;;;;;;;24.20;16.20;;;;;;;0.09;88.49;101200.41;5014519;28;20495;-48
2022/12/12 09:38:49;;;;;;;29.38;18.13;;;;;;;0.07;88.05;101203.25;5014576;28;20045;-50
2022/12/12 09:41:20;;;;;;;26.08;16.40;;;;;;;0.09;88.96;101200.41;5010127;28;20489;-47
2022/12/12 09:44:04;;;;;;;22.33;13.18;;;;;;;0.17;90.97;101202.97;5014646;28;20050;-48
2022/12/12 09:46:36;;;;;;;23.33;14.23;;;;;;;0.26;93.26;101195.63;5002816;28;20061;-49
2022/12/12 09:49:11;;;;;;;29.58;18.00;;;;;;;0.18;89.32;101204.63;4997159;28;20054;-50
2022/12/12 09:51:40;;;;;;;26.42;16.42;;;;;;;0.18;89.77;101201.94;5011102;28;20390;-47
2022/12/12 09:54:15;;;;;;;28.85;14.38;;;;;;;0.20;91.48;101198.06;4996759;28;20042;-47
2022/12/12 09:56:56;;;;;;;25.20;15.38;;;;;;;0.23;90.35;101207.56;4996815;28;20050;-48
2022/12/12 09:59:31;;;;;;;25.42;16.55;;;;;;;0.20;89.84;101207.94;5015161;28;20463;-48
2022/12/12 10:02:14;;;;;;;27.02;16.55;;;;;;;0.22;89.17;101203.22;5010878;28;20062;-48
2022/12/12 10:05:11;;;;;;;22.77;13.60;;;;;;;0.27;89.60;101208.84;5006268;28;20056;-47
2022/12/12 10:07:50;;;;;;;24.65;16.38;;;;;;;0.30;89.69;101202.28;5014092;28;20034;-46
2022/12/12 10:10:29;;;;;;;24.98;16.00;;;;;;;0.31;89.18;101198.56;5014368;28;20045;-47
2022/12/12 10:12:57;;;;;;;25.80;15.73;;;;;;;0.33;88.39;101197.34;5007278;28;20038;-46
2022/12/12 10:15:38;;;;;;;23.77;14.73;;;;;;;0.34;89.08;101196.34;4994081;28;20038;-46
2022/12/12 10:18:20;;;;;;;27.25;16.25;;;;;;;0.37;88.40;101187.91;5013647;28;20044;-50
2022/12/12 10:20:50;;;;;;;24.80;15.25;;;;;;;0.40;88.30;101181.34;4996685;28;20053;-49
2022/12/12 10:23:45;;;;;;;23.08;15.20;;;;;;;0.42;87.97;101182.81;4981490;28;20093;-48
2022/12/12 10:26:18;;;;;;;23.63;14.73;;;;;;;0.47;90.04;101186.75;4992103;28;20058;-50
2022/12/12 10:28:49;;;;;;;20.70;12.32;;;;;;;0.52;91.18;101185.16;4976434;28;20528;-48
2022/12/12 10:31:55;;;;;;;28.10;15.88;;;;;;;0.51;89.29;101196.09;4985001;28;20046;-47
2022/12/12 10:34:42;;;;;;;26.80;15.05;;;;;;;0.55;90.60;101189.28;4970898;28;20050;-49
2022/12/12 10:37:12;;;;;;;24.60;15.00;;;;;;;0.62;89.94;101182.13;4974764;28;20041;-48
2022/12/12 10:40:01;;;;;;;25.95;16.25;;;;;;;0.63;88.83;101179.28;5013513;28;20069;-47
2022/12/12 10:42:52;;;;;;;25.63;15.80;;;;;;;0.62;89.37;101176.78;4997943;28;20075;-49
2022/12/12 10:45:32;;;;;;;22.85;13.98;;;;;;;0.61;88.91;101178.63;4960452;28;20108;-49
2022/12/12 10:48:00;;;;;;;18.50;10.32;;;;;;;0.73;95.57;101187.00;4982220;28;20060;-48
2022/12/12 10:50:42;;;;;;;22.13;14.43;;;;;;;0.69;91.08;101169.63;4979856;28;20049;-48
2022/12/12 10:53:10;;;;;;;21.85;13.77;;;;;;;0.67;90.29;101176.19;4963640;28;20046;-49
2022/12/12 10:55:47;;;;;;;21.40;11.48;;;;;;;0.70;90.90;101165.94;4977220;28;20043;-49
2022/12/12 10:58:18;;;;;;;19.95;11.10;;;;;;;0.73;93.99;101168.22;4986579;28;20515;-50
2022/12/12 11:00:48;;;;;;;27.48;15.93;;;;;;;0.60;88.59;101171.63;4988268;28;20038;-51
2022/12/12 11:03:21;;;;;;;27.13;16.55;;;;;;;0.52;88.75;101162.88;5005581;28;20484;-49
2022/12/12 11:05:49;;;;;;;27.15;16.85;;;;;;;0.46;88.45;101174.38;5012376;28;20111;-48
2022/12/12 11:08:34;;;;;;;25.50;16.15;;;;;;;0.46;88.34;101166.31;4996324;28;20516;-48
2022/12/12 11:11:13;;;;;;;26.90;15.45;;;;;;;0.46;87.62;101169.00;4999650;28;20517;-48
2022/12/12 11:14:01;;;;;;;26.02;15.00;;;;;;;0.45;87.92;101168.19;4996558;28;20048;-48
2022/12/12 11:16:40;;;;;;;26.63;17.35;;;;;;;0.45;87.00;101167.34;4977259;28;20043;-45
2022/12/12 11:19:23;;;;;;;23.67;14.82;;;;;;;0.43;87.30;101159.50;4990210;28;20570;-46
2022/12/12 11:21:51;;;;;;;25.00;15.18;;;;;;;0.46;87.24;101160.97;5001011;28;20038;-50
2022/12/12 11:24:21;;;;;;;20.45;12.23;;;;;;;0.58;88.56;101159.44;5010897;28;20057;-48
2022/12/12 11:26:57;;;;;;;21.77;12.88;;;;;;;0.64;88.13;101164.00;4988169;28;20049;-50
2022/12/12 11:29:39;;;;;;;20.30;11.63;;;;;;;0.72;89.23;101157.66;4990895;28;20042;-48
2022/12/12 11:32:24;;;;;;;22.98;12.55;;;;;;;0.79;89.62;101159.38;5007841;28;20056;-50
2022/12/12 11:35:01;;;;;;;22.13;13.50;;;;;;;0.83;91.66;101159.81;4982420;28;20042;-49
2022/12/12 11:37:47;;;;;;;23.98;13.75;;;;;;;0.84;90.52;101154.28;4982776;28;20388;-52
2022/12/12 11:40:33;;;;;;;21.48;12.88;;;;;;;0.90;91.14;101146.47;4998406;28;20054;-49
2022/12/12 11:43:25;;;;;;;27.48;15.90;;;;;;;0.89;89.25;101147.47;4955643;28;20074;-52
2022/12/12 11:46:14;;;;;;;22.30;12.68;;;;;;;0.92;89.98;101147.09;4973650;28;20038;-47
2022/12/12 11:48:51;;;;;;;25.08;14.48;;;;;;;0.93;89.01;101148.75;4995413;28;20520;-53
2022/12/12 11:51:44;;;;;;;20.27;11.88;;;;;;;0.97;90.95;101150.03;4970479;28;20040;-49
2022/12/12 11:54:30;;;;;;;21.15;13.40;;;;;;;0.95;87.71;101146.69;4992497;28;20042;-50